createdAt,value
2018-03-06T00:03:20.256Z,62.10
2018-03-06T00:08:22.836Z,62.50
2018-03-06T00:13:25.412Z,58.93
2018-03-06T00:18:27.988Z,59.53
2018-03-06T00:23:30.529Z,54.17
2018-03-06T00:28:33.030Z,61.23
2018-03-06T00:33:36.191Z,54.90
2018-03-06T00:38:38.701Z,62.87
2018-03-06T00:43:41.219Z,59.33
2018-03-06T00:48:43.736Z,48.73
2018-03-06T00:53:46.266Z,69.60
2018-03-06T00:58:48.842Z,52.53
2018-03-06T01:03:51.367Z,61.03
2018-03-06T01:08:54.027Z,57.93
2018-03-06T01:13:56.553Z,64.10
2018-03-06T01:18:59.058Z,68.37
2018-03-06T01:24:01.641Z,58.63
2018-03-06T01:29:04.140Z,65.73
2018-03-06T01:34:08.944Z,59.53
2018-03-06T01:39:11.445Z,62.97
2018-03-06T01:44:13.929Z,63.93
2018-03-06T01:49:17.061Z,59.43
2018-03-06T01:54:19.587Z,59.03
2018-03-06T01:59:22.142Z,63.27
2018-03-06T02:04:24.748Z,51.60
2018-03-06T02:09:27.297Z,65.47
2018-03-06T02:14:29.841Z,59.37
2018-03-06T02:19:32.336Z,63.37
2018-03-06T02:24:34.825Z,68.67
2018-03-06T02:29:37.339Z,70.60
2018-03-06T02:34:39.954Z,70.20
2018-03-06T02:39:42.466Z,67.30
2018-03-06T02:44:45.023Z,81.17
2018-03-06T02:49:47.673Z,79.80
2018-03-06T02:54:50.248Z,73.10
2018-03-06T02:59:52.794Z,71.33
2018-03-06T03:04:56.252Z,77.47
2018-03-06T03:09:58.802Z,57.80
2018-03-06T03:15:01.320Z,62.73
2018-03-06T03:20:04.068Z,71.10
2018-03-06T03:25:06.565Z,61.87
2018-03-06T03:30:09.065Z,71.43
2018-03-06T03:35:11.552Z,78.50
2018-03-06T03:40:14.059Z,79.90
2018-03-06T03:45:16.673Z,71.23
2018-03-06T03:50:19.216Z,72.57
2018-03-06T03:55:21.780Z,79.40
2018-03-06T04:00:24.354Z,82.50
2018-03-06T04:05:26.952Z,76.67
2018-03-06T04:10:29.478Z,78.50
2018-03-06T04:15:31.989Z,76.67
2018-03-06T04:20:34.872Z,85.00
2018-03-06T04:25:37.369Z,82.73
2018-03-06T04:30:39.848Z,84.23
2018-03-06T04:35:42.350Z,78.93
2018-03-06T04:40:44.904Z,79.10
2018-03-06T04:45:47.722Z,85.80
2018-03-06T04:50:50.290Z,83.63
2018-03-06T04:55:52.960Z,82.57
2018-03-06T05:00:55.503Z,75.27
2018-03-06T05:05:58.187Z,86.10
2018-03-06T05:11:00.721Z,83.73
2018-03-06T05:16:03.228Z,96.07
2018-03-06T05:21:05.718Z,85.63
2018-03-06T05:26:09.166Z,91.73
2018-03-06T05:31:11.661Z,87.97
2018-03-06T05:36:14.536Z,85.53
2018-03-06T05:41:17.111Z,84.37
2018-03-06T05:46:19.770Z,86.97
2018-03-06T05:51:22.379Z,82.90
2018-03-06T05:56:25.235Z,84.37
2018-03-06T06:01:27.770Z,77.40
2018-03-06T06:06:30.253Z,78.87
2018-03-06T06:11:33.799Z,79.77
2018-03-06T06:16:36.719Z,76.53
2018-03-06T06:21:39.382Z,76.13
2018-03-06T06:26:41.845Z,67.10
2018-03-06T06:31:44.344Z,71.17
2018-03-06T06:36:47.445Z,74.57
2018-03-06T06:41:49.971Z,62.40
2018-03-06T06:46:52.794Z,62.43
2018-03-06T06:51:55.412Z,64.20
2018-03-06T06:56:57.916Z,73.60
2018-03-06T07:02:00.480Z,77.77
2018-03-06T07:07:03.000Z,71.53
2018-03-06T07:12:05.643Z,70.17
2018-03-06T07:17:08.145Z,69.83
2018-03-06T07:22:10.632Z,69.77
2018-03-06T07:27:13.400Z,65.03
2018-03-06T07:32:15.925Z,68.33
2018-03-06T07:37:18.431Z,67.03
2018-03-06T07:42:20.964Z,65.83
2018-03-06T07:47:23.509Z,59.03
2018-03-06T07:52:26.202Z,60.43
2018-03-06T07:57:28.709Z,60.60
2018-03-06T08:02:31.196Z,55.83
2018-03-06T08:07:33.666Z,66.30
2018-03-06T08:12:36.173Z,59.93
2018-03-06T08:17:38.669Z,57.10
2018-03-06T08:22:41.165Z,57.80
2018-03-06T08:27:43.633Z,56.07
2018-03-06T08:32:46.237Z,55.17
2018-03-06T08:37:48.855Z,53.23
2018-03-06T08:42:51.489Z,53.47
2018-03-06T08:47:55.386Z,52.90
2018-03-06T08:52:57.958Z,49.83
2018-03-06T08:58:00.446Z,46.03
2018-03-06T09:03:02.952Z,52.07
2018-03-06T09:08:05.419Z,47.53
2018-03-06T09:13:07.874Z,43.20
2018-03-06T09:18:10.367Z,45.63
2018-03-06T09:23:12.913Z,44.77
2018-03-06T09:28:15.434Z,48.93
2018-03-06T09:33:17.943Z,45.07
2018-03-06T09:38:20.467Z,47.40
2018-03-06T09:43:22.926Z,45.17
2018-03-06T09:48:25.517Z,45.10
2018-03-06T09:53:28.006Z,45.07
2018-03-06T09:58:30.491Z,43.40
2018-03-06T10:03:32.965Z,40.33
2018-03-06T10:08:35.443Z,45.03
2018-03-06T10:13:37.906Z,42.80
2018-03-06T10:18:40.399Z,42.33
2018-03-06T10:23:42.919Z,38.93
2018-03-06T10:28:45.493Z,41.97
2018-03-06T10:33:47.994Z,40.83
2018-03-06T10:38:50.622Z,39.07
2018-03-06T10:43:53.266Z,38.03
2018-03-06T10:48:55.756Z,38.50
2018-03-06T10:53:58.263Z,39.20
2018-03-06T10:59:00.758Z,38.57
2018-03-06T11:04:03.372Z,40.93
2018-03-06T11:09:05.847Z,41.70
2018-03-06T11:14:08.344Z,39.90
2018-03-06T11:19:10.812Z,34.90
2018-03-06T11:24:13.309Z,33.03
2018-03-06T11:29:15.910Z,36.57
2018-03-06T11:34:18.844Z,37.67
2018-03-06T11:39:21.390Z,39.20
2018-03-06T11:44:24.060Z,37.07
2018-03-06T11:49:26.535Z,40.20
2018-03-06T11:54:28.989Z,39.60
2018-03-06T11:59:31.471Z,34.57
2018-03-06T12:04:33.939Z,36.73
2018-03-06T12:09:36.413Z,36.67
2018-03-06T12:14:38.935Z,38.97
2018-03-06T12:19:41.434Z,37.30
2018-03-06T12:24:43.906Z,35.03
2018-03-06T12:29:46.775Z,38.33
2018-03-06T12:34:49.433Z,39.80
2018-03-06T12:39:52.114Z,41.60
2018-03-06T12:44:54.621Z,38.83
2018-03-06T12:49:57.124Z,36.10
2018-03-06T12:54:59.923Z,35.30
2018-03-06T13:00:02.469Z,32.07
2018-03-06T13:05:04.932Z,32.83
2018-03-06T13:10:07.394Z,35.73
2018-03-06T13:15:09.891Z,40.23
2018-03-06T13:20:12.467Z,40.00
2018-03-06T13:25:14.980Z,37.17
2018-03-06T13:30:17.485Z,41.43
2018-03-06T13:35:20.005Z,40.23
2018-03-06T13:40:22.507Z,44.03
2018-03-06T13:45:25.161Z,44.87
2018-03-06T13:50:27.668Z,48.23
2018-03-06T13:55:30.166Z,47.57
2018-03-06T14:00:32.797Z,52.67
2018-03-06T14:05:35.263Z,57.17
2018-03-06T14:10:38.623Z,55.10
2018-03-06T14:15:41.300Z,54.10
2018-03-06T14:20:43.834Z,47.67
2018-03-06T14:25:46.300Z,59.63
2018-03-06T14:30:48.812Z,55.93
2018-03-06T14:35:51.318Z,58.00
2018-03-06T14:40:54.692Z,57.30
2018-03-06T14:45:57.148Z,59.60
2018-03-06T14:50:59.622Z,53.50
2018-03-06T14:56:02.448Z,59.70
2018-03-06T15:01:05.886Z,57.47
2018-03-06T15:06:09.177Z,58.37
2018-03-06T15:11:15.540Z,60.30
2018-03-06T15:16:18.049Z,67.80
2018-03-06T15:21:20.536Z,66.37
2018-03-06T15:26:23.016Z,72.53
2018-03-06T15:31:27.408Z,72.27
2018-03-06T15:36:29.870Z,91.20
2018-03-06T15:41:32.575Z,91.77
2018-03-06T15:46:35.082Z,98.07
2018-03-06T15:51:37.581Z,91.30
2018-03-06T15:56:40.060Z,99.43
2018-03-06T16:01:42.641Z,85.70
2018-03-06T16:06:45.153Z,93.27
2018-03-06T16:11:47.694Z,96.23
2018-03-06T16:16:50.200Z,97.33
2018-03-06T16:21:52.661Z,99.17
2018-03-06T16:26:55.117Z,107.43
2018-03-06T16:31:57.626Z,116.07
2018-03-06T16:37:00.111Z,126.60
2018-03-06T16:42:02.596Z,136.67
2018-03-06T16:47:05.134Z,139.47
2018-03-06T16:52:07.646Z,146.73
2018-03-06T16:57:10.118Z,132.07
2018-03-06T17:02:12.610Z,150.53
2018-03-06T17:07:15.144Z,147.37
2018-03-06T17:12:17.695Z,141.60
2018-03-06T17:17:20.268Z,147.17
2018-03-06T17:22:22.786Z,151.83
2018-03-06T17:27:25.239Z,157.27
2018-03-06T17:32:27.779Z,172.23
2018-03-06T17:37:30.255Z,151.23
2018-03-06T17:42:32.732Z,152.23
2018-03-06T17:47:35.189Z,180.40
2018-03-06T17:52:37.658Z,193.67
2018-03-06T17:57:40.120Z,217.73
2018-03-06T18:02:42.661Z,195.67
2018-03-06T18:07:45.683Z,199.27
2018-03-06T18:12:48.223Z,183.90
2018-03-06T18:17:50.758Z,171.67
2018-03-06T18:22:53.260Z,176.90
2018-03-06T18:27:55.732Z,178.17
2018-03-06T18:32:58.204Z,169.87
2018-03-06T18:38:00.946Z,181.00
2018-03-06T18:43:08.467Z,204.50
2018-03-06T18:48:11.988Z,169.63
2018-03-06T18:53:14.893Z,164.47
2018-03-06T18:58:17.393Z,171.57
2018-03-06T19:03:34.455Z,170.80
2018-03-06T19:08:38.601Z,158.63
2018-03-06T19:13:42.747Z,176.23
2018-03-06T19:18:45.222Z,173.03
2018-03-06T19:23:47.722Z,147.10
2018-03-06T19:28:50.281Z,171.90
2018-03-06T19:33:52.944Z,164.80
2018-03-06T19:38:55.542Z,161.23
2018-03-06T19:43:58.023Z,174.20
2018-03-06T19:49:00.485Z,167.40
2018-03-06T19:54:03.011Z,164.37
2018-03-06T19:59:05.474Z,146.10
2018-03-06T20:04:07.959Z,148.13
2018-03-06T20:09:10.462Z,134.77
2018-03-06T20:14:13.024Z,150.10
2018-03-06T20:19:21.189Z,135.67
2018-03-06T20:24:29.235Z,127.33
2018-03-06T20:29:31.723Z,156.53
2018-03-06T20:34:34.243Z,150.30
2018-03-06T20:39:42.513Z,135.50
2018-03-06T20:44:46.401Z,142.27
2018-03-06T20:49:49.765Z,139.23
2018-03-06T20:54:57.809Z,142.23
2018-03-06T21:00:00.496Z,128.87
2018-03-06T21:05:03.667Z,138.57
2018-03-06T21:10:07.094Z,135.90
2018-03-06T21:15:10.508Z,149.37
2018-03-06T21:20:13.701Z,132.20
2018-03-06T21:25:16.323Z,143.43
2018-03-06T21:30:18.829Z,129.77
2018-03-06T21:35:22.014Z,136.43
2018-03-06T21:40:24.595Z,134.67
2018-03-06T21:45:29.142Z,124.37
2018-03-06T21:50:32.760Z,119.90
2018-03-06T21:55:37.416Z,130.70
2018-03-06T22:00:41.225Z,115.83
2018-03-06T22:05:44.094Z,114.47
2018-03-06T22:10:46.620Z,113.23
2018-03-06T22:15:49.117Z,103.97
2018-03-06T22:20:51.603Z,101.80
2018-03-06T22:25:54.054Z,96.50
2018-03-06T22:30:56.551Z,101.23
2018-03-06T22:36:00.012Z,97.37
2018-03-06T22:41:02.481Z,92.77
2018-03-06T22:46:04.964Z,101.43
2018-03-06T22:51:08.610Z,96.13
2018-03-06T22:56:11.101Z,90.43
2018-03-06T23:01:14.014Z,79.33
2018-03-06T23:06:16.468Z,93.97
2018-03-06T23:11:18.933Z,101.40
2018-03-06T23:16:21.385Z,95.73
2018-03-06T23:21:23.849Z,104.53
2018-03-06T23:26:26.328Z,99.43
2018-03-06T23:31:28.808Z,107.17
2018-03-06T23:36:31.256Z,100.27
2018-03-06T23:41:33.770Z,104.97
2018-03-06T23:46:36.239Z,94.53
2018-03-06T23:51:38.714Z,91.10
2018-03-06T23:56:41.174Z,100.57
